Time,TemperatureF,DewpointF,PressureIn,WindDirection,WindDirectionDegrees,WindSpeedMPH,WindSpeedGustMPH,Humidity,HourlyPrecipIn,Conditions,Clouds,dailyrainin,SolarRadiationWatts/m^2,SoftwareType,DateUTC
2013-02-24 00:00:00,24.7,20.3,29.76,NNW,337,1.0,8.0,83,0.00,,,-99.99,0,WeatherLink 5.7,2013-02-24 07:00:00,
2013-02-24 00:10:00,24.4,17.9,29.78,North,0,2.0,11.0,76,0.00,,,-99.99,0,WeatherLink 5.7,2013-02-24 07:10:00,
2013-02-24 00:20:00,24.7,16.6,29.77,WNW,292,3.0,15.0,71,0.00,,,-99.99,0,WeatherLink 5.7,2013-02-24 07:20:00,
2013-02-24 00:25:00,24.5,16.1,29.77,SSE,157,1.0,4.0,70,0.00,,,-99.99,0,WeatherLink 5.7,2013-02-24 07:25:00,
2013-02-24 00:35:00,24.4,16.7,29.77,NNW,337,0.0,4.0,72,0.00,,,-99.99,0,WeatherLink 5.7,2013-02-24 07:35:00,
2013-02-24 00:40:00,24.2,16.8,29.77,North,0,1.0,4.0,73,0.00,,,-99.99,0,WeatherLink 5.7,2013-02-24 07:40:00,
2013-02-24 00:45:00,23.9,16.5,29.77,NNW,337,1.0,4.0,73,0.00,,,-99.99,0,WeatherLink 5.7,2013-02-24 07:45:00,
2013-02-24 00:55:00,23.6,16.5,29.78,NNW,337,1.0,6.0,74,0.00,,,-99.99,0,WeatherLink 5.7,2013-02-24 07:55:00,
2013-02-24 01:00:00,23.5,16.4,29.78,East,90,0.0,2.0,74,0.00,,,-99.99,0,WeatherLink 5.7,2013-02-24 08:00:00,
2013-02-24 01:10:00,23.3,16.9,29.81,SE,135,0.0,2.0,76,0.00,,,-99.99,0,WeatherLink 5.7,2013-02-24 08:10:00,
2013-02-24 01:20:00,23.2,17.1,29.78,North,-999,0.0,0.0,77,0.00,,,-99.99,0,WeatherLink 5.7,2013-02-24 08:20:00,
2013-02-24 01:30:00,22.9,17.4,29.78,North,-999,0.0,0.0,79,0.00,,,-99.99,0,WeatherLink 5.7,2013-02-24 08:30:00,
2013-02-24 01:35:00,22.7,17.2,29.78,NNW,337,0.0,4.0,79,0.00,,,-99.99,0,WeatherLink 5.7,2013-02-24 08:35:00,
2013-02-24 01:40:00,22.7,17.2,29.78,NNW,337,0.0,3.0,79,0.00,,,-99.99,0,WeatherLink 5.7,2013-02-24 08:40:00,
2013-02-24 01:50:00,22.6,17.1,29.79,NW,315,2.0,10.0,79,0.00,,,-99.99,0,WeatherLink 5.7,2013-02-24 08:50:00,
2013-02-24 01:55:00,22.6,17.1,29.79,NW,315,1.0,5.0,79,0.00,,,-99.99,0,WeatherLink 5.7,2013-02-24 08:55:00,
2013-02-24 02:00:00,22.6,17.1,29.79,NW,315,1.0,3.0,79,0.00,,,-99.99,0,WeatherLink 5.7,2013-02-24 09:00:00,
2013-02-24 02:10:00,22.6,16.8,29.78,NNW,337,0.0,2.0,78,0.00,,,-99.99,0,WeatherLink 5.7,2013-02-24 09:10:00,
2013-02-24 02:15:00,22.7,16.6,29.78,North,0,0.0,2.0,77,0.00,,,-99.99,0,WeatherLink 5.7,2013-02-24 09:15:00,
2013-02-24 02:25:00,22.7,16.0,29.76,NNW,337,1.0,4.0,75,0.00,,,-99.99,0,WeatherLink 5.7,2013-02-24 09:25:00,
2013-02-24 02:30:00,22.9,15.8,29.76,NNW,337,0.0,3.0,74,0.00,,,-99.99,0,WeatherLink 5.7,2013-02-24 09:30:00,
2013-02-24 02:40:00,22.9,15.2,29.77,NNW,337,1.0,3.0,72,0.00,,,-99.99,0,WeatherLink 5.7,2013-02-24 09:40:00,
2013-02-24 02:50:00,22.9,14.9,29.77,NNW,337,0.0,2.0,71,0.00,,,-99.99,0,WeatherLink 5.7,2013-02-24 09:50:00,
2013-02-24 02:55:00,22.7,15.0,29.77,NNW,337,0.0,2.0,72,0.00,,,-99.99,0,WeatherLink 5.7,2013-02-24 09:55:00,
2013-02-24 03:00:00,22.7,15.0,29.77,North,-999,0.0,0.0,72,0.00,,,-99.99,0,WeatherLink 5.7,2013-02-24 10:00:00,
2013-02-24 03:10:00,22.6,14.6,29.78,NNW,337,1.0,4.0,71,0.00,,,-99.99,0,WeatherLink 5.7,2013-02-24 10:10:00,
2013-02-24 03:15:00,22.6,14.6,29.78,NNW,337,0.0,2.0,71,0.00,,,-99.99,0,WeatherLink 5.7,2013-02-24 10:15:00,
2013-02-24 03:20:00,22.4,14.4,29.78,North,0,0.0,4.0,71,0.00,,,-99.99,0,WeatherLink 5.7,2013-02-24 10:20:00,
2013-02-24 03:30:00,22.4,14.4,29.78,North,0,0.0,3.0,71,0.00,,,-99.99,0,WeatherLink 5.7,2013-02-24 10:30:00,
2013-02-24 03:35:00,22.4,14.4,29.78,North,0,0.0,3.0,71,0.00,,,-99.99,0,WeatherLink 5.7,2013-02-24 10:35:00,
2013-02-24 03:45:00,22.4,14.1,29.78,NNW,337,0.0,1.0,70,0.00,,,-99.99,0,WeatherLink 5.7,2013-02-24 10:45:00,
2013-02-24 03:50:00,22.4,14.4,29.79,NNW,337,1.0,3.0,71,0.00,,,-99.99,0,WeatherLink 5.7,2013-02-24 10:50:00,
2013-02-24 03:55:00,22.2,14.9,29.79,NW,315,1.0,4.0,73,0.00,,,-99.99,0,WeatherLink 5.7,2013-02-24 10:55:00,
2013-02-24 04:00:00,21.9,14.9,29.79,NW,315,1.0,3.0,74,0.00,,,-99.99,0,WeatherLink 5.7,2013-02-24 11:00:00,
2013-02-24 04:10:00,21.5,15.4,29.79,NW,315,0.0,2.0,77,0.00,,,-99.99,0,WeatherLink 5.7,2013-02-24 11:10:00,
2013-02-24 04:20:00,21.3,15.8,29.84,WNW,292,1.0,3.0,79,0.00,,,-99.99,0,WeatherLink 5.7,2013-02-24 11:20:00,
2013-02-24 04:25:00,21.1,15.6,29.84,NNW,337,0.0,1.0,79,0.00,,,-99.99,0,WeatherLink 5.7,2013-02-24 11:25:00,
2013-02-24 04:35:00,21.0,15.8,29.84,NNW,337,0.0,3.0,80,0.00,,,-99.99,0,WeatherLink 5.7,2013-02-24 11:35:00,
2013-02-24 04:40:00,20.8,15.6,29.84,NNW,337,0.0,2.0,80,0.00,,,-99.99,0,WeatherLink 5.7,2013-02-24 11:40:00,
2013-02-24 04:50:00,20.8,15.9,29.84,West,270,0.0,3.0,81,0.00,,,-99.99,0,WeatherLink 5.7,2013-02-24 11:50:00,
2013-02-24 04:55:00,20.7,15.8,29.84,NW,315,2.0,4.0,81,0.00,,,-99.99,0,WeatherLink 5.7,2013-02-24 11:55:00,
2013-02-24 05:00:00,20.7,15.8,29.84,NNW,337,1.0,3.0,81,0.00,,,-99.99,0,WeatherLink 5.7,2013-02-24 12:00:00,
2013-02-24 05:10:00,20.5,15.6,29.85,NW,315,0.0,2.0,81,0.00,,,-99.99,0,WeatherLink 5.7,2013-02-24 12:10:00,
2013-02-24 05:15:00,20.5,15.6,29.85,North,-999,0.0,0.0,81,0.00,,,-99.99,0,WeatherLink 5.7,2013-02-24 12:15:00,
2013-02-24 05:25:00,20.5,15.6,29.87,North,-999,0.0,0.0,81,0.00,,,-99.99,0,WeatherLink 5.7,2013-02-24 12:25:00,
2013-02-24 05:30:00,20.3,15.1,29.87,West,270,0.0,1.0,80,0.00,,,-99.99,0,WeatherLink 5.7,2013-02-24 12:30:00,
2013-02-24 05:35:00,20.3,15.1,29.87,North,-999,0.0,0.0,80,0.00,,,-99.99,0,WeatherLink 5.7,2013-02-24 12:35:00,
2013-02-24 05:45:00,20.3,15.1,29.87,West,270,0.0,2.0,80,0.00,,,-99.99,0,WeatherLink 5.7,2013-02-24 12:45:00,
2013-02-24 05:50:00,20.3,14.8,29.88,WNW,292,0.0,3.0,79,0.00,,,-99.99,0,WeatherLink 5.7,2013-02-24 12:50:00,
2013-02-24 06:00:00,20.2,14.7,29.88,NNW,337,0.0,3.0,79,0.00,,,-99.99,0,WeatherLink 5.7,2013-02-24 13:00:00,
2013-02-24 06:10:00,20.3,14.8,29.88,WNW,292,0.0,3.0,79,0.00,,,-99.99,0,WeatherLink 5.7,2013-02-24 13:10:00,
2013-02-24 06:15:00,20.3,14.8,29.88,NW,315,1.0,5.0,79,0.00,,,-99.99,0,WeatherLink 5.7,2013-02-24 13:15:00,
2013-02-24 06:20:00,20.3,14.8,29.89,NNW,337,0.0,3.0,79,0.00,,,-99.99,0,WeatherLink 5.7,2013-02-24 13:20:00,
2013-02-24 06:25:00,20.3,14.8,29.89,NW,315,0.0,2.0,79,0.00,,,-99.99,0,WeatherLink 5.7,2013-02-24 13:25:00,
2013-02-24 06:30:00,20.3,14.8,29.89,NW,315,0.0,2.0,79,0.00,,,-99.99,0,WeatherLink 5.7,2013-02-24 13:30:00,
2013-02-24 06:40:00,20.3,14.8,29.89,NW,315,0.0,2.0,79,0.00,,,-99.99,0,WeatherLink 5.7,2013-02-24 13:40:00,
2013-02-24 06:50:00,20.3,14.8,29.89,NNW,337,1.0,2.0,79,0.00,,,-99.99,0,WeatherLink 5.7,2013-02-24 13:50:00,
2013-02-24 07:00:00,20.5,15.0,29.89,NW,315,0.0,3.0,79,0.00,,,-99.99,0,WeatherLink 5.7,2013-02-24 14:00:00,
2013-02-24 07:10:00,20.5,15.0,29.90,North,-999,0.0,0.0,79,0.00,,,-99.99,5,WeatherLink 5.7,2013-02-24 14:10:00,
2013-02-24 07:15:00,20.5,14.7,29.90,North,-999,0.0,0.0,78,0.00,,,-99.99,7,WeatherLink 5.7,2013-02-24 14:15:00,
2013-02-24 07:20:00,20.7,14.9,29.90,NW,315,0.0,2.0,78,0.00,,,-99.99,10,WeatherLink 5.7,2013-02-24 14:20:00,
2013-02-24 07:30:00,20.8,14.7,29.90,NNW,337,1.0,4.0,77,0.00,,,-99.99,18,WeatherLink 5.7,2013-02-24 14:30:00,
2013-02-24 07:35:00,20.8,14.7,29.91,NNW,337,0.0,2.0,77,0.00,,,-99.99,24,WeatherLink 5.7,2013-02-24 14:35:00,
2013-02-24 07:45:00,20.8,14.7,29.91,North,0,0.0,2.0,77,0.00,,,-99.99,25,WeatherLink 5.7,2013-02-24 14:45:00,
2013-02-24 07:55:00,21.0,14.6,29.92,North,-999,0.0,0.0,76,0.00,,,-99.99,32,WeatherLink 5.7,2013-02-24 14:55:00,
2013-02-24 08:00:00,21.1,14.7,29.92,North,-999,0.0,0.0,76,0.00,,,-99.99,36,WeatherLink 5.7,2013-02-24 15:00:00,
2013-02-24 08:10:00,20.8,14.1,29.92,East,90,0.0,3.0,75,0.00,,,-99.99,45,WeatherLink 5.7,2013-02-24 15:10:00,
2013-02-24 08:15:00,20.3,13.3,29.92,East,90,1.0,3.0,74,0.00,,,-99.99,47,WeatherLink 5.7,2013-02-24 15:15:00,
2013-02-24 08:20:00,20.0,13.0,29.94,East,90,0.0,3.0,74,0.00,,,-99.99,50,WeatherLink 5.7,2013-02-24 15:20:00,
2013-02-24 08:25:00,20.0,13.3,29.94,North,-999,0.0,0.0,75,0.00,,,-99.99,55,WeatherLink 5.7,2013-02-24 15:25:00,
2013-02-24 08:35:00,20.5,13.8,29.93,North,-999,0.0,0.0,75,0.00,,,-99.99,63,WeatherLink 5.7,2013-02-24 15:35:00,
2013-02-24 08:40:00,20.7,14.0,29.93,East,90,0.0,2.0,75,0.00,,,-99.99,67,WeatherLink 5.7,2013-02-24 15:40:00,
2013-02-24 08:50:00,20.0,13.0,29.94,East,90,2.0,4.0,74,0.00,,,-99.99,76,WeatherLink 5.7,2013-02-24 15:50:00,
2013-02-24 08:55:00,19.7,12.8,29.94,East,90,1.0,4.0,74,0.00,,,-99.99,78,WeatherLink 5.7,2013-02-24 15:55:00,
2013-02-24 09:00:00,19.6,13.0,29.94,East,90,1.0,4.0,75,0.00,,,-99.99,88,WeatherLink 5.7,2013-02-24 16:00:00,
2013-02-24 09:10:00,19.6,13.0,29.95,East,90,1.0,3.0,75,0.00,,,-99.99,112,WeatherLink 5.7,2013-02-24 16:10:00,
2013-02-24 09:15:00,19.9,13.6,29.95,East,90,0.0,2.0,76,0.00,,,-99.99,108,WeatherLink 5.7,2013-02-24 16:15:00,
2013-02-24 09:25:00,20.2,13.8,29.95,East,90,0.0,3.0,76,0.00,,,-99.99,113,WeatherLink 5.7,2013-02-24 16:25:00,
2013-02-24 09:30:00,20.5,14.1,29.95,North,-999,0.0,0.0,76,0.00,,,-99.99,110,WeatherLink 5.7,2013-02-24 16:30:00,
2013-02-24 09:40:00,20.8,14.4,29.94,North,-999,0.0,0.0,76,0.00,,,-99.99,149,WeatherLink 5.7,2013-02-24 16:40:00,
2013-02-24 09:45:00,21.0,14.6,29.94,East,90,0.0,2.0,76,0.00,,,-99.99,175,WeatherLink 5.7,2013-02-24 16:45:00,
2013-02-24 09:55:00,21.6,15.5,29.94,North,-999,0.0,0.0,77,0.00,,,-99.99,195,WeatherLink 5.7,2013-02-24 16:55:00,
2013-02-24 10:00:00,21.9,15.8,29.94,North,-999,0.0,0.0,77,0.00,,,-99.99,207,WeatherLink 5.7,2013-02-24 17:00:00,
2013-02-24 10:10:00,22.9,16.2,29.94,NNW,337,0.0,4.0,75,0.00,,,-99.99,212,WeatherLink 5.7,2013-02-24 17:10:00,
2013-02-24 10:15:00,23.0,15.9,29.94,NNW,337,1.0,4.0,74,0.00,,,-99.99,242,WeatherLink 5.7,2013-02-24 17:15:00,
2013-02-24 10:20:00,23.0,15.6,29.94,NW,315,2.0,5.0,73,0.01,,,-99.99,259,WeatherLink 5.7,2013-02-24 17:20:00,
2013-02-24 10:30:00,23.5,15.8,29.94,NNW,337,2.0,4.0,72,0.01,,,-99.99,246,WeatherLink 5.7,2013-02-24 17:30:00,
2013-02-24 10:35:00,23.6,15.6,29.94,NNW,337,2.0,6.0,71,0.01,,,-99.99,215,WeatherLink 5.7,2013-02-24 17:35:00,
2013-02-24 10:45:00,23.5,15.1,29.94,NNW,337,1.0,6.0,70,0.01,,,-99.99,224,WeatherLink 5.7,2013-02-24 17:45:00,
2013-02-24 10:55:00,23.5,14.1,29.94,NW,315,2.0,6.0,67,0.01,,,-99.99,269,WeatherLink 5.7,2013-02-24 17:55:00,
2013-02-24 11:00:00,23.6,14.2,29.94,NW,315,1.0,4.0,67,0.01,,,-99.99,270,WeatherLink 5.7,2013-02-24 18:00:00,
2013-02-24 11:10:00,24.5,14.4,29.94,NW,315,2.0,6.0,65,0.01,,,-99.99,422,WeatherLink 5.7,2013-02-24 18:10:00,
2013-02-24 11:15:00,25.3,14.5,29.94,NNW,337,1.0,5.0,63,0.02,,,-99.99,549,WeatherLink 5.7,2013-02-24 18:15:00,
2013-02-24 11:20:00,25.4,14.2,29.95,NNW,337,2.0,6.0,62,0.01,,,-99.99,579,WeatherLink 5.7,2013-02-24 18:20:00,
2013-02-24 11:30:00,26.1,15.2,29.95,NNW,337,1.0,5.0,63,0.02,,,-99.99,595,WeatherLink 5.7,2013-02-24 18:30:00,
2013-02-24 11:35:00,26.0,15.1,29.94,NNW,337,1.0,6.0,63,0.02,,,-99.99,549,WeatherLink 5.7,2013-02-24 18:35:00,
2013-02-24 11:40:00,26.1,15.6,29.94,NNW,337,2.0,7.0,64,0.02,,,-99.99,557,WeatherLink 5.7,2013-02-24 18:40:00,
2013-02-24 11:45:00,26.3,15.0,29.94,NNW,337,2.0,6.0,62,0.02,,,-99.99,567,WeatherLink 5.7,2013-02-24 18:45:00,
2013-02-24 11:55:00,25.8,14.9,29.94,NNW,337,4.0,11.0,63,0.02,,,-99.99,571,WeatherLink 5.7,2013-02-24 18:55:00,
2013-02-24 12:00:00,26.3,15.0,29.94,NNW,337,3.0,11.0,62,0.02,,,-99.99,535,WeatherLink 5.7,2013-02-24 19:00:00,
2013-02-24 12:10:00,26.6,14.9,29.94,NNW,337,2.0,7.0,61,0.02,,,-99.99,548,WeatherLink 5.7,2013-02-24 19:10:00,
2013-02-24 12:15:00,27.3,15.6,29.94,NNW,337,1.0,5.0,61,0.01,,,-99.99,612,WeatherLink 5.7,2013-02-24 19:15:00,
2013-02-24 12:20:00,27.9,15.4,29.94,North,0,1.0,5.0,59,0.01,,,-99.99,618,WeatherLink 5.7,2013-02-24 19:20:00,
2013-02-24 12:30:00,27.2,15.1,29.94,NNW,337,4.0,7.0,60,0.00,,,-99.99,496,WeatherLink 5.7,2013-02-24 19:30:00,
2013-02-24 12:35:00,26.9,16.0,29.93,NNW,337,3.0,7.0,63,0.00,,,-99.99,484,WeatherLink 5.7,2013-02-24 19:35:00,
2013-02-24 12:40:00,27.0,15.7,29.93,NNW,337,1.0,7.0,62,0.00,,,-99.99,431,WeatherLink 5.7,2013-02-24 19:40:00,
2013-02-24 12:50:00,26.7,15.4,29.93,NNW,337,3.0,10.0,62,0.00,,,-99.99,410,WeatherLink 5.7,2013-02-24 19:50:00,
2013-02-24 12:55:00,27.2,16.3,29.93,NW,315,2.0,6.0,63,0.00,,,-99.99,420,WeatherLink 5.7,2013-02-24 19:55:00,
2013-02-24 13:00:00,27.0,15.3,29.93,NW,315,3.0,10.0,61,0.00,,,-99.99,452,WeatherLink 5.7,2013-02-24 20:00:00,
2013-02-24 13:10:00,27.9,15.4,29.93,NNW,337,2.0,6.0,59,0.00,,,-99.99,406,WeatherLink 5.7,2013-02-24 20:10:00,
2013-02-24 13:20:00,28.2,16.5,29.92,NW,315,2.0,5.0,61,0.00,,,-99.99,440,WeatherLink 5.7,2013-02-24 20:20:00,
2013-02-24 13:25:00,28.7,15.8,29.92,NNW,337,2.0,7.0,58,0.00,,,-99.99,442,WeatherLink 5.7,2013-02-24 20:25:00,
2013-02-24 13:30:00,28.7,15.8,29.92,NNW,337,2.0,9.0,58,0.00,,,-99.99,481,WeatherLink 5.7,2013-02-24 20:30:00,
2013-02-24 13:40:00,29.1,16.1,29.91,NNW,337,2.0,6.0,58,0.00,,,-99.99,467,WeatherLink 5.7,2013-02-24 20:40:00,
2013-02-24 13:50:00,30.1,16.7,29.91,NNW,337,1.0,3.0,57,0.00,,,-99.99,450,WeatherLink 5.7,2013-02-24 20:50:00,
2013-02-24 13:55:00,30.0,16.6,29.91,NNW,337,1.0,6.0,57,0.00,,,-99.99,442,WeatherLink 5.7,2013-02-24 20:55:00,
2013-02-24 14:00:00,30.7,16.8,29.91,NNW,337,1.0,4.0,56,0.00,,,-99.99,631,WeatherLink 5.7,2013-02-24 21:00:00,
2013-02-24 14:10:00,30.1,16.7,29.89,NNW,337,3.0,7.0,57,0.00,,,-99.99,429,WeatherLink 5.7,2013-02-24 21:10:00,
2013-02-24 14:20:00,30.6,17.2,29.91,NNW,337,1.0,4.0,57,0.00,,,-99.99,423,WeatherLink 5.7,2013-02-24 21:20:00,
2013-02-24 14:25:00,30.7,17.3,29.91,NNW,337,3.0,10.0,57,0.01,,,-99.99,476,WeatherLink 5.7,2013-02-24 21:25:00,
2013-02-24 14:35:00,30.0,17.0,29.92,North,0,2.0,9.0,58,0.01,,,-99.99,339,WeatherLink 5.7,2013-02-24 21:35:00,
2013-02-24 14:40:00,29.8,16.8,29.92,NNW,337,3.0,10.0,58,0.01,,,-99.99,396,WeatherLink 5.7,2013-02-24 21:40:00,
2013-02-24 14:50:00,29.8,16.8,29.92,NNW,337,3.0,11.0,58,0.01,,,-99.99,255,WeatherLink 5.7,2013-02-24 21:50:00,
2013-02-24 15:00:00,29.5,16.9,29.92,NNW,337,4.0,11.0,59,0.01,,,-99.99,297,WeatherLink 5.7,2013-02-24 22:00:00,
2013-02-24 15:10:00,29.7,17.5,29.92,North,0,3.0,8.0,60,0.01,,,-99.99,340,WeatherLink 5.7,2013-02-24 22:10:00,
2013-02-24 15:20:00,29.4,16.8,29.94,North,0,3.0,11.0,59,0.01,,,-99.99,273,WeatherLink 5.7,2013-02-24 22:20:00,
2013-02-24 15:25:00,29.4,17.2,29.94,NNW,337,2.0,6.0,60,0.00,,,-99.99,241,WeatherLink 5.7,2013-02-24 22:25:00,
2013-02-24 15:30:00,29.2,17.0,29.94,NNW,337,4.0,11.0,60,0.00,,,-99.99,215,WeatherLink 5.7,2013-02-24 22:30:00,
2013-02-24 15:40:00,29.2,17.0,29.95,NNW,337,4.0,14.0,60,0.00,,,-99.99,194,WeatherLink 5.7,2013-02-24 22:40:00,
2013-02-24 15:50:00,29.0,16.8,29.96,NNW,337,4.0,11.0,60,0.00,,,-99.99,167,WeatherLink 5.7,2013-02-24 22:50:00,
2013-02-24 15:55:00,29.0,17.2,29.96,NNW,337,4.0,9.0,61,0.00,,,-99.99,145,WeatherLink 5.7,2013-02-24 22:55:00,
2013-02-24 16:00:00,28.8,17.4,29.96,NNW,337,6.0,12.0,62,0.00,,,-99.99,144,WeatherLink 5.7,2013-02-24 23:00:00,
2013-02-24 16:10:00,28.7,17.3,29.97,NNW,337,3.0,7.0,62,0.00,,,-99.99,130,WeatherLink 5.7,2013-02-24 23:10:00,
2013-02-24 16:20:00,28.7,17.3,29.98,NNW,337,3.0,12.0,62,0.00,,,-99.99,119,WeatherLink 5.7,2013-02-24 23:20:00,
2013-02-24 16:30:00,28.5,17.1,29.98,NNW,337,3.0,7.0,62,0.00,,,-99.99,96,WeatherLink 5.7,2013-02-24 23:30:00,
2013-02-24 16:35:00,28.5,17.1,29.98,NNW,337,2.0,6.0,62,0.00,,,-99.99,87,WeatherLink 5.7,2013-02-24 23:35:00,
2013-02-24 16:40:00,28.5,17.5,29.98,NNW,337,1.0,5.0,63,0.00,,,-99.99,85,WeatherLink 5.7,2013-02-24 23:40:00,
2013-02-24 16:50:00,28.4,17.0,30.01,NNW,337,1.0,7.0,62,0.00,,,-99.99,69,WeatherLink 5.7,2013-02-24 23:50:00,
2013-02-24 16:55:00,28.4,17.0,30.01,NNW,337,1.0,4.0,62,0.00,,,-99.99,62,WeatherLink 5.7,2013-02-24 23:55:00,
2013-02-24 17:00:00,28.4,17.0,30.01,NNW,337,2.0,5.0,62,0.00,,,-99.99,55,WeatherLink 5.7,2013-02-25 00:00:00,
2013-02-24 17:10:00,28.4,17.0,30.01,NNW,337,1.0,6.0,62,0.00,,,-99.99,38,WeatherLink 5.7,2013-02-25 00:10:00,
2013-02-24 17:15:00,28.2,16.8,30.01,NNW,337,1.0,4.0,62,0.00,,,-99.99,33,WeatherLink 5.7,2013-02-25 00:15:00,
2013-02-24 17:20:00,28.2,16.8,30.03,NNW,337,1.0,3.0,62,0.00,,,-99.99,28,WeatherLink 5.7,2013-02-25 00:20:00,
2013-02-24 17:30:00,28.1,17.1,30.03,NNW,337,0.0,2.0,63,0.00,,,-99.99,18,WeatherLink 5.7,2013-02-25 00:30:00,
2013-02-24 17:35:00,28.1,16.7,30.04,NNW,337,0.0,2.0,62,0.00,,,-99.99,13,WeatherLink 5.7,2013-02-25 00:35:00,
2013-02-24 17:45:00,27.9,16.9,30.04,NNW,337,1.0,6.0,63,0.00,,,-99.99,7,WeatherLink 5.7,2013-02-25 00:45:00,
2013-02-24 17:55:00,27.9,16.6,30.05,NNW,337,0.0,3.0,62,0.00,,,-99.99,0,WeatherLink 5.7,2013-02-25 00:55:00,
2013-02-24 18:00:00,27.9,16.9,30.05,NNW,337,1.0,6.0,63,0.00,,,-99.99,0,WeatherLink 5.7,2013-02-25 01:00:00,
2013-02-24 18:10:00,27.8,16.8,30.05,NNW,337,1.0,6.0,63,0.00,,,-99.99,0,WeatherLink 5.7,2013-02-25 01:10:00,
2013-02-24 18:15:00,27.8,16.8,30.05,NNW,337,0.0,5.0,63,0.00,,,-99.99,0,WeatherLink 5.7,2013-02-25 01:15:00,
2013-02-24 18:25:00,27.6,17.0,30.07,NW,315,1.0,4.0,64,0.00,,,-99.99,0,WeatherLink 5.7,2013-02-25 01:25:00,
2013-02-24 18:30:00,27.5,16.9,30.07,NNW,337,1.0,4.0,64,0.00,,,-99.99,0,WeatherLink 5.7,2013-02-25 01:30:00,
2013-02-24 18:40:00,27.5,16.9,30.07,NW,315,1.0,3.0,64,0.00,,,-99.99,0,WeatherLink 5.7,2013-02-25 01:40:00,
2013-02-24 18:45:00,27.3,17.1,30.07,WNW,292,0.0,2.0,65,0.00,,,-99.99,0,WeatherLink 5.7,2013-02-25 01:45:00,
2013-02-24 18:55:00,27.0,16.8,30.08,North,-999,0.0,0.0,65,0.00,,,-99.99,0,WeatherLink 5.7,2013-02-25 01:55:00,
2013-02-24 19:00:00,26.9,17.0,30.08,NNW,337,0.0,1.0,66,0.00,,,-99.99,0,WeatherLink 5.7,2013-02-25 02:00:00,
2013-02-24 19:10:00,26.7,17.2,30.08,NW,315,0.0,2.0,67,0.00,,,-99.99,0,WeatherLink 5.7,2013-02-25 02:10:00,
2013-02-24 19:15:00,26.6,17.1,30.08,North,-999,0.0,0.0,67,0.00,,,-99.99,0,WeatherLink 5.7,2013-02-25 02:15:00,
2013-02-24 19:20:00,26.6,17.1,30.10,NW,315,1.0,3.0,67,0.00,,,-99.99,0,WeatherLink 5.7,2013-02-25 02:20:00,
2013-02-24 19:25:00,26.4,16.9,30.10,North,-999,0.0,0.0,67,0.00,,,-99.99,0,WeatherLink 5.7,2013-02-25 02:25:00,
2013-02-24 19:35:00,26.1,17.0,30.12,WNW,292,0.0,2.0,68,0.00,,,-99.99,0,WeatherLink 5.7,2013-02-25 02:35:00,
2013-02-24 19:45:00,26.1,17.0,30.12,North,-999,0.0,0.0,68,0.00,,,-99.99,0,WeatherLink 5.7,2013-02-25 02:45:00,
2013-02-24 19:50:00,26.1,17.0,30.13,WNW,292,0.0,2.0,68,0.00,,,-99.99,0,WeatherLink 5.7,2013-02-25 02:50:00,
2013-02-24 19:55:00,26.1,17.0,30.13,NW,315,1.0,4.0,68,0.00,,,-99.99,0,WeatherLink 5.7,2013-02-25 02:55:00,
2013-02-24 20:00:00,26.0,16.9,30.13,NW,315,1.0,3.0,68,0.00,,,-99.99,0,WeatherLink 5.7,2013-02-25 03:00:00,
2013-02-24 20:10:00,26.0,16.9,30.13,NW,315,0.0,3.0,68,0.00,,,-99.99,0,WeatherLink 5.7,2013-02-25 03:10:00,
2013-02-24 20:20:00,25.7,16.6,30.15,North,-999,0.0,0.0,68,0.00,,,-99.99,0,WeatherLink 5.7,2013-02-25 03:20:00,
2013-02-24 20:30:00,25.5,16.7,30.15,NW,315,0.0,2.0,69,0.00,,,-99.99,0,WeatherLink 5.7,2013-02-25 03:30:00,
2013-02-24 20:40:00,25.3,16.5,30.15,NW,315,1.0,3.0,69,0.00,,,-99.99,0,WeatherLink 5.7,2013-02-25 03:40:00,
2013-02-24 20:45:00,25.3,16.9,30.15,NW,315,1.0,3.0,70,0.00,,,-99.99,0,WeatherLink 5.7,2013-02-25 03:45:00,
2013-02-24 20:50:00,25.1,16.7,30.15,NW,315,1.0,3.0,70,0.00,,,-99.99,0,WeatherLink 5.7,2013-02-25 03:50:00,
2013-02-24 21:00:00,24.7,16.3,30.15,NW,315,0.0,2.0,70,0.00,,,-99.99,0,WeatherLink 5.7,2013-02-25 04:00:00,
2013-02-24 21:10:00,24.2,16.1,30.16,NW,315,0.0,1.0,71,0.00,,,-99.99,0,WeatherLink 5.7,2013-02-25 04:10:00,
2013-02-24 21:20:00,23.8,15.8,30.16,NW,315,1.0,3.0,71,0.00,,,-99.99,0,WeatherLink 5.7,2013-02-25 04:20:00,
2013-02-24 21:25:00,23.6,15.9,30.16,NW,315,0.0,3.0,72,0.00,,,-99.99,0,WeatherLink 5.7,2013-02-25 04:25:00,
2013-02-24 21:35:00,23.2,15.5,30.16,NW,315,0.0,2.0,72,0.00,,,-99.99,0,WeatherLink 5.7,2013-02-25 04:35:00,
2013-02-24 21:40:00,23.0,15.3,30.16,North,-999,0.0,0.0,72,0.00,,,-99.99,0,WeatherLink 5.7,2013-02-25 04:40:00,
2013-02-24 21:50:00,22.6,15.2,30.17,NW,315,0.0,2.0,73,0.00,,,-99.99,0,WeatherLink 5.7,2013-02-25 04:50:00,
2013-02-24 21:55:00,22.6,15.2,30.17,NW,315,0.0,2.0,73,0.00,,,-99.99,0,WeatherLink 5.7,2013-02-25 04:55:00,
2013-02-24 22:00:00,22.1,14.8,30.17,NW,315,0.0,1.0,73,0.00,,,-99.99,0,WeatherLink 5.7,2013-02-25 05:00:00,
2013-02-24 22:10:00,21.6,14.3,30.18,North,-999,0.0,0.0,73,0.00,,,-99.99,0,WeatherLink 5.7,2013-02-25 05:10:00,
2013-02-24 22:15:00,21.3,14.0,30.18,North,-999,0.0,0.0,73,0.00,,,-99.99,0,WeatherLink 5.7,2013-02-25 05:15:00,
2013-02-24 22:20:00,21.1,13.8,30.19,NW,315,0.0,2.0,73,0.00,,,-99.99,0,WeatherLink 5.7,2013-02-25 05:20:00,
2013-02-24 22:25:00,20.8,13.5,30.19,West,270,0.0,3.0,73,0.00,,,-99.99,0,WeatherLink 5.7,2013-02-25 05:25:00,
2013-02-24 22:30:00,20.8,13.8,30.19,WNW,292,1.0,3.0,74,0.00,,,-99.99,0,WeatherLink 5.7,2013-02-25 05:30:00,
2013-02-24 22:35:00,21.0,13.7,30.19,NW,315,2.0,5.0,73,0.00,,,-99.99,0,WeatherLink 5.7,2013-02-25 05:35:00,
2013-02-24 22:40:00,21.1,13.8,30.19,NNW,337,4.0,9.0,73,0.00,,,-99.99,0,WeatherLink 5.7,2013-02-25 05:40:00,
2013-02-24 22:50:00,20.7,13.4,30.19,NW,315,3.0,5.0,73,0.00,,,-99.99,0,WeatherLink 5.7,2013-02-25 05:50:00,
2013-02-24 22:55:00,20.3,13.0,30.19,NW,315,3.0,5.0,73,0.00,,,-99.99,0,WeatherLink 5.7,2013-02-25 05:55:00,
2013-02-24 23:00:00,20.2,12.9,30.19,NW,315,3.0,7.0,73,0.00,,,-99.99,0,WeatherLink 5.7,2013-02-25 06:00:00,
2013-02-24 23:10:00,19.7,12.8,30.19,NW,315,1.0,3.0,74,0.00,,,-99.99,0,WeatherLink 5.7,2013-02-25 06:10:00,
2013-02-24 23:15:00,19.6,12.7,30.19,NNW,337,1.0,4.0,74,0.00,,,-99.99,0,WeatherLink 5.7,2013-02-25 06:15:00,
2013-02-24 23:25:00,19.7,12.8,30.18,NW,315,2.0,5.0,74,0.00,,,-99.99,0,WeatherLink 5.7,2013-02-25 06:25:00,
2013-02-24 23:30:00,19.9,12.6,30.18,NW,315,3.0,5.0,73,0.00,,,-99.99,0,WeatherLink 5.7,2013-02-25 06:30:00,
2013-02-24 23:40:00,19.6,12.7,30.20,NW,315,3.0,6.0,74,0.00,,,-99.99,0,WeatherLink 5.7,2013-02-25 06:40:00,
2013-02-24 23:45:00,19.4,12.5,30.20,NW,315,1.0,3.0,74,0.00,,,-99.99,0,WeatherLink 5.7,2013-02-25 06:45:00,
2013-02-24 23:55:00,19.1,12.2,30.19,North,-999,0.0,0.0,74,0.00,,,-99.99,0,WeatherLink 5.7,2013-02-25 06:55:00,